sensor_id;sensor_type;location;lat;lon;timestamp;temperature;humidity
15103;DHT22;7652;53.584;9.998;2023-02-15T00:02:53;5.40;99.90
15103;DHT22;7652;53.584;9.998;2023-02-15T00:05:56;5.30;99.90
15103;DHT22;7652;53.584;9.998;2023-02-15T00:09:01;5.30;99.90
15103;DHT22;7652;53.584;9.998;2023-02-15T00:12:05;5.30;99.90
15103;DHT22;7652;53.584;9.998;2023-02-15T00:15:08;5.30;99.90
15103;DHT22;7652;53.584;9.998;2023-02-15T00:18:13;5.30;99.90
15103;DHT22;7652;53.584;9.998;2023-02-15T00:21:16;5.40;99.90
15103;DHT22;7652;53.584;9.998;2023-02-15T00:24:19;5.40;99.90
15103;DHT22;7652;53.584;9.998;2023-02-15T00:27:24;5.50;99.90
15103;DHT22;7652;53.584;9.998;2023-02-15T00:30:27;5.50;99.90
15103;DHT22;7652;53.584;9.998;2023-02-15T00:33:30;5.50;99.90
15103;DHT22;7652;53.584;9.998;2023-02-15T00:36:33;5.60;99.90
15103;DHT22;7652;53.584;9.998;2023-02-15T00:39:36;5.60;99.90
15103;DHT22;7652;53.584;9.998;2023-02-15T00:42:40;5.60;99.90
15103;DHT22;7652;53.584;9.998;2023-02-15T00:45:45;5.60;99.90
15103;DHT22;7652;53.584;9.998;2023-02-15T00:48:48;5.60;99.90
15103;DHT22;7652;53.584;9.998;2023-02-15T00:51:51;5.60;99.90
15103;DHT22;7652;53.584;9.998;2023-02-15T00:54:54;5.60;99.90
15103;DHT22;7652;53.584;9.998;2023-02-15T00:57:58;5.70;99.90
15103;DHT22;7652;53.584;9.998;2023-02-15T01:01:06;5.70;99.90
15103;DHT22;7652;53.584;9.998;2023-02-15T01:04:09;5.70;99.90
15103;DHT22;7652;53.584;9.998;2023-02-15T01:07:13;5.70;99.90
15103;DHT22;7652;53.584;9.998;2023-02-15T01:10:16;5.70;99.90
15103;DHT22;7652;53.584;9.998;2023-02-15T01:13:20;5.70;99.90
15103;DHT22;7652;53.584;9.998;2023-02-15T01:16:25;5.70;99.90
15103;DHT22;7652;53.584;9.998;2023-02-15T01:19:28;5.60;99.90
15103;DHT22;7652;53.584;9.998;2023-02-15T01:22:32;5.60;99.90
15103;DHT22;7652;53.584;9.998;2023-02-15T01:25:35;5.60;99.90
15103;DHT22;7652;53.584;9.998;2023-02-15T01:28:40;5.70;99.90
15103;DHT22;7652;53.584;9.998;2023-02-15T01:31:43;5.60;99.90
15103;DHT22;7652;53.584;9.998;2023-02-15T01:34:46;5.60;99.90
15103;DHT22;7652;53.584;9.998;2023-02-15T01:37:49;5.60;99.90
15103;DHT22;7652;53.584;9.998;2023-02-15T01:40:53;5.60;99.90
15103;DHT22;7652;53.584;9.998;2023-02-15T01:44:54;5.60;99.90
15103;DHT22;7652;53.584;9.998;2023-02-15T01:47:59;5.60;99.90
15103;DHT22;7652;53.584;9.998;2023-02-15T01:51:04;5.70;99.90
15103;DHT22;7652;53.584;9.998;2023-02-15T01:54:10;5.70;99.90
15103;DHT22;7652;53.584;9.998;2023-02-15T01:57:19;5.70;99.90
15103;DHT22;7652;53.584;9.998;2023-02-15T02:00:26;5.70;99.90
15103;DHT22;7652;53.584;9.998;2023-02-15T02:03:38;5.60;99.90
15103;DHT22;7652;53.584;9.998;2023-02-15T02:06:44;5.60;99.90
15103;DHT22;7652;53.584;9.998;2023-02-15T02:09:48;5.60;99.90
15103;DHT22;7652;53.584;9.998;2023-02-15T02:12:53;5.60;99.90
15103;DHT22;7652;53.584;9.998;2023-02-15T02:16:03;5.60;99.90
15103;DHT22;7652;53.584;9.998;2023-02-15T02:19:50;5.50;99.90
15103;DHT22;7652;53.584;9.998;2023-02-15T02:23:25;5.50;99.90
15103;DHT22;7652;53.584;9.998;2023-02-15T02:26:58;5.50;99.90
15103;DHT22;7652;53.584;9.998;2023-02-15T02:30:36;5.60;99.90
15103;DHT22;7652;53.584;9.998;2023-02-15T02:33:49;5.60;99.90
15103;DHT22;7652;53.584;9.998;2023-02-15T02:36:59;5.60;99.90
15103;DHT22;7652;53.584;9.998;2023-02-15T02:40:10;5.60;99.90
15103;DHT22;7652;53.584;9.998;2023-02-15T02:43:18;5.60;99.90
15103;DHT22;7652;53.584;9.998;2023-02-15T02:46:28;5.50;99.90
15103;DHT22;7652;53.584;9.998;2023-02-15T02:49:36;5.60;99.90
15103;DHT22;7652;53.584;9.998;2023-02-15T02:52:42;5.60;99.90
15103;DHT22;7652;53.584;9.998;2023-02-15T02:55:47;5.50;99.90
15103;DHT22;7652;53.584;9.998;2023-02-15T02:58:55;5.60;99.90
15103;DHT22;7652;53.584;9.998;2023-02-15T03:02:02;5.50;99.90
15103;DHT22;7652;53.584;9.998;2023-02-15T03:05:15;5.50;99.90
15103;DHT22;7652;53.584;9.998;2023-02-15T03:08:20;5.50;99.90
15103;DHT22;7652;53.584;9.998;2023-02-15T03:11:25;5.50;99.90
15103;DHT22;7652;53.584;9.998;2023-02-15T03:14:28;5.50;99.90
15103;DHT22;7652;53.584;9.998;2023-02-15T03:17:32;5.40;99.90
15103;DHT22;7652;53.584;9.998;2023-02-15T03:20:38;5.30;99.90
15103;DHT22;7652;53.584;9.998;2023-02-15T03:23:41;5.40;99.90
15103;DHT22;7652;53.584;9.998;2023-02-15T03:26:46;5.50;99.90
15103;DHT22;7652;53.584;9.998;2023-02-15T03:29:53;5.40;99.90
15103;DHT22;7652;53.584;9.998;2023-02-15T03:32:58;5.40;99.90
15103;DHT22;7652;53.584;9.998;2023-02-15T03:36:08;5.50;99.90
15103;DHT22;7652;53.584;9.998;2023-02-15T03:39:18;5.40;99.90
15103;DHT22;7652;53.584;9.998;2023-02-15T03:42:26;5.50;99.90
15103;DHT22;7652;53.584;9.998;2023-02-15T03:45:31;5.50;99.90
15103;DHT22;7652;53.584;9.998;2023-02-15T03:48:39;5.50;99.90
15103;DHT22;7652;53.584;9.998;2023-02-15T03:51:46;5.40;99.90
15103;DHT22;7652;53.584;9.998;2023-02-15T03:54:51;5.40;99.90
15103;DHT22;7652;53.584;9.998;2023-02-15T03:57:55;5.40;99.90
15103;DHT22;7652;53.584;9.998;2023-02-15T04:01:24;5.30;99.90
15103;DHT22;7652;53.584;9.998;2023-02-15T04:04:47;5.20;99.90
15103;DHT22;7652;53.584;9.998;2023-02-15T04:07:52;5.20;99.90
15103;DHT22;7652;53.584;9.998;2023-02-15T04:10:55;5.20;99.90
15103;DHT22;7652;53.584;9.998;2023-02-15T04:13:57;5.20;99.90
15103;DHT22;7652;53.584;9.998;2023-02-15T04:17:21;5.30;99.90
15103;DHT22;7652;53.584;9.998;2023-02-15T04:20:23;5.20;99.90
15103;DHT22;7652;53.584;9.998;2023-02-15T04:23:45;5.20;99.90
15103;DHT22;7652;53.584;9.998;2023-02-15T04:27:05;5.10;99.90
15103;DHT22;7652;53.584;9.998;2023-02-15T04:30:10;5.20;99.90
15103;DHT22;7652;53.584;9.998;2023-02-15T04:33:13;5.10;99.90
15103;DHT22;7652;53.584;9.998;2023-02-15T04:36:16;5.10;99.90
15103;DHT22;7652;53.584;9.998;2023-02-15T04:39:21;5.20;99.90
15103;DHT22;7652;53.584;9.998;2023-02-15T04:42:24;5.20;99.90
15103;DHT22;7652;53.584;9.998;2023-02-15T04:45:27;5.20;99.90
15103;DHT22;7652;53.584;9.998;2023-02-15T04:48:30;5.20;99.90
15103;DHT22;7652;53.584;9.998;2023-02-15T04:51:33;5.30;99.90
15103;DHT22;7652;53.584;9.998;2023-02-15T04:54:37;5.10;99.90
15103;DHT22;7652;53.584;9.998;2023-02-15T04:57:41;5.10;99.90
15103;DHT22;7652;53.584;9.998;2023-02-15T05:00:44;5.10;99.90
15103;DHT22;7652;53.584;9.998;2023-02-15T05:03:47;5.10;99.90
15103;DHT22;7652;53.584;9.998;2023-02-15T05:06:50;5.10;99.90
15103;DHT22;7652;53.584;9.998;2023-02-15T05:09:54;5.20;99.90
15103;DHT22;7652;53.584;9.998;2023-02-15T05:12:57;5.20;99.90
15103;DHT22;7652;53.584;9.998;2023-02-15T05:16:00;5.20;99.90
15103;DHT22;7652;53.584;9.998;2023-02-15T05:19:03;5.10;99.90
15103;DHT22;7652;53.584;9.998;2023-02-15T05:22:06;5.10;99.90
15103;DHT22;7652;53.584;9.998;2023-02-15T05:25:11;5.10;99.90
15103;DHT22;7652;53.584;9.998;2023-02-15T05:28:31;5.20;99.90
15103;DHT22;7652;53.584;9.998;2023-02-15T05:31:34;5.00;99.90
15103;DHT22;7652;53.584;9.998;2023-02-15T05:34:38;5.10;99.90
15103;DHT22;7652;53.584;9.998;2023-02-15T05:37:41;5.00;99.90
15103;DHT22;7652;53.584;9.998;2023-02-15T05:40:45;5.00;99.90
15103;DHT22;7652;53.584;9.998;2023-02-15T05:43:50;5.00;99.90
15103;DHT22;7652;53.584;9.998;2023-02-15T05:46:53;5.00;99.90
15103;DHT22;7652;53.584;9.998;2023-02-15T05:49:56;5.00;99.90
15103;DHT22;7652;53.584;9.998;2023-02-15T05:52:59;4.90;99.90
15103;DHT22;7652;53.584;9.998;2023-02-15T05:56:05;4.80;99.90
15103;DHT22;7652;53.584;9.998;2023-02-15T05:59:09;4.80;99.90
15103;DHT22;7652;53.584;9.998;2023-02-15T06:02:13;4.70;99.90
15103;DHT22;7652;53.584;9.998;2023-02-15T06:05:17;4.70;99.90
15103;DHT22;7652;53.584;9.998;2023-02-15T06:08:20;4.70;99.90
15103;DHT22;7652;53.584;9.998;2023-02-15T06:11:24;4.70;99.90
15103;DHT22;7652;53.584;9.998;2023-02-15T06:14:27;4.70;99.90
15103;DHT22;7652;53.584;9.998;2023-02-15T06:17:30;4.80;99.90
15103;DHT22;7652;53.584;9.998;2023-02-15T06:20:33;4.70;99.90
15103;DHT22;7652;53.584;9.998;2023-02-15T06:23:37;4.60;99.90
15103;DHT22;7652;53.584;9.998;2023-02-15T06:26:41;4.50;99.90
15103;DHT22;7652;53.584;9.998;2023-02-15T06:29:45;4.50;99.90
15103;DHT22;7652;53.584;9.998;2023-02-15T06:32:49;4.50;99.90
15103;DHT22;7652;53.584;9.998;2023-02-15T06:35:52;4.60;99.90
15103;DHT22;7652;53.584;9.998;2023-02-15T06:38:55;4.50;99.90
15103;DHT22;7652;53.584;9.998;2023-02-15T06:42:00;4.50;99.90
15103;DHT22;7652;53.584;9.998;2023-02-15T06:45:03;4.60;99.90
15103;DHT22;7652;53.584;9.998;2023-02-15T06:48:09;4.60;99.90
15103;DHT22;7652;53.584;9.998;2023-02-15T06:51:12;4.80;99.90
15103;DHT22;7652;53.584;9.998;2023-02-15T06:54:15;4.70;99.90
15103;DHT22;7652;53.584;9.998;2023-02-15T06:57:20;4.50;99.90
15103;DHT22;7652;53.584;9.998;2023-02-15T07:00:23;4.50;99.90
15103;DHT22;7652;53.584;9.998;2023-02-15T07:03:26;4.50;99.90
15103;DHT22;7652;53.584;9.998;2023-02-15T07:06:31;4.50;99.90
15103;DHT22;7652;53.584;9.998;2023-02-15T07:09:34;4.60;99.90
15103;DHT22;7652;53.584;9.998;2023-02-15T07:12:38;4.60;99.90
15103;DHT22;7652;53.584;9.998;2023-02-15T07:15:48;4.70;99.90
15103;DHT22;7652;53.584;9.998;2023-02-15T07:18:51;4.80;99.90
15103;DHT22;7652;53.584;9.998;2023-02-15T07:21:54;4.80;99.90
15103;DHT22;7652;53.584;9.998;2023-02-15T07:24:57;4.80;99.90
15103;DHT22;7652;53.584;9.998;2023-02-15T07:28:03;4.70;99.90
15103;DHT22;7652;53.584;9.998;2023-02-15T07:31:06;4.80;99.90
15103;DHT22;7652;53.584;9.998;2023-02-15T07:34:09;4.70;99.90
15103;DHT22;7652;53.584;9.998;2023-02-15T07:37:12;4.80;99.90
15103;DHT22;7652;53.584;9.998;2023-02-15T07:40:16;4.80;99.90
15103;DHT22;7652;53.584;9.998;2023-02-15T07:43:20;4.80;99.90
15103;DHT22;7652;53.584;9.998;2023-02-15T07:46:23;4.70;99.90
15103;DHT22;7652;53.584;9.998;2023-02-15T07:49:26;4.70;99.90
15103;DHT22;7652;53.584;9.998;2023-02-15T07:52:29;4.80;99.90
15103;DHT22;7652;53.584;9.998;2023-02-15T07:55:32;4.80;99.90
15103;DHT22;7652;53.584;9.998;2023-02-15T07:58:37;4.80;99.90
15103;DHT22;7652;53.584;9.998;2023-02-15T08:01:57;4.70;99.90
15103;DHT22;7652;53.584;9.998;2023-02-15T08:05:00;4.70;99.90
15103;DHT22;7652;53.584;9.998;2023-02-15T08:08:03;4.70;99.90
15103;DHT22;7652;53.584;9.998;2023-02-15T08:11:15;4.50;99.90
15103;DHT22;7652;53.584;9.998;2023-02-15T08:14:29;4.60;99.90
15103;DHT22;7652;53.584;9.998;2023-02-15T08:17:36;4.60;99.90
15103;DHT22;7652;53.584;9.998;2023-02-15T08:20:39;4.70;99.90
15103;DHT22;7652;53.584;9.998;2023-02-15T08:23:41;4.70;99.90
15103;DHT22;7652;53.584;9.998;2023-02-15T08:26:45;4.80;99.90
15103;DHT22;7652;53.584;9.998;2023-02-15T08:29:50;4.50;99.90
15103;DHT22;7652;53.584;9.998;2023-02-15T08:32:53;4.60;99.90
15103;DHT22;7652;53.584;9.998;2023-02-15T08:40:35;4.50;99.90
15103;DHT22;7652;53.584;9.998;2023-02-15T08:43:40;4.60;99.90
15103;DHT22;7652;53.584;9.998;2023-02-15T08:46:45;4.60;99.90
15103;DHT22;7652;53.584;9.998;2023-02-15T08:49:48;4.60;99.90
15103;DHT22;7652;53.584;9.998;2023-02-15T08:52:52;4.70;99.90
15103;DHT22;7652;53.584;9.998;2023-02-15T08:55:56;4.40;99.90
15103;DHT22;7652;53.584;9.998;2023-02-15T08:59:00;4.40;99.90
15103;DHT22;7652;53.584;9.998;2023-02-15T09:02:04;4.40;99.90
15103;DHT22;7652;53.584;9.998;2023-02-15T09:05:07;4.40;99.90
15103;DHT22;7652;53.584;9.998;2023-02-15T09:08:10;4.50;99.90
15103;DHT22;7652;53.584;9.998;2023-02-15T09:11:15;4.60;99.90
15103;DHT22;7652;53.584;9.998;2023-02-15T09:14:23;4.70;99.90
15103;DHT22;7652;53.584;9.998;2023-02-15T09:17:29;4.80;99.90
15103;DHT22;7652;53.584;9.998;2023-02-15T09:20:35;4.90;99.90
15103;DHT22;7652;53.584;9.998;2023-02-15T09:23:38;4.80;99.90
15103;DHT22;7652;53.584;9.998;2023-02-15T09:26:42;4.90;99.90
15103;DHT22;7652;53.584;9.998;2023-02-15T09:29:46;4.90;99.90
15103;DHT22;7652;53.584;9.998;2023-02-15T09:32:50;5.00;99.90
15103;DHT22;7652;53.584;9.998;2023-02-15T09:35:53;5.10;99.90
15103;DHT22;7652;53.584;9.998;2023-02-15T09:38:57;5.10;99.90
15103;DHT22;7652;53.584;9.998;2023-02-15T09:42:19;5.00;99.90
15103;DHT22;7652;53.584;9.998;2023-02-15T09:45:35;4.90;99.90
15103;DHT22;7652;53.584;9.998;2023-02-15T09:48:45;5.00;99.90
15103;DHT22;7652;53.584;9.998;2023-02-15T09:52:04;4.90;99.90
15103;DHT22;7652;53.584;9.998;2023-02-15T09:55:24;4.80;99.90
15103;DHT22;7652;53.584;9.998;2023-02-15T09:58:42;4.80;99.90
15103;DHT22;7652;53.584;9.998;2023-02-15T10:01:58;4.90;99.90
15103;DHT22;7652;53.584;9.998;2023-02-15T10:05:16;5.00;99.90
15103;DHT22;7652;53.584;9.998;2023-02-15T10:09:02;5.00;99.90
15103;DHT22;7652;53.584;9.998;2023-02-15T10:12:21;5.00;99.90
15103;DHT22;7652;53.584;9.998;2023-02-15T10:15:49;4.90;99.90
15103;DHT22;7652;53.584;9.998;2023-02-15T10:19:00;5.00;99.90
15103;DHT22;7652;53.584;9.998;2023-02-15T10:22:17;4.90;99.90
15103;DHT22;7652;53.584;9.998;2023-02-15T10:25:31;5.10;99.90
15103;DHT22;7652;53.584;9.998;2023-02-15T10:28:39;5.20;99.90
15103;DHT22;7652;53.584;9.998;2023-02-15T10:31:48;5.40;99.90
15103;DHT22;7652;53.584;9.998;2023-02-15T10:34:56;5.50;99.90
15103;DHT22;7652;53.584;9.998;2023-02-15T10:38:13;5.40;99.90
15103;DHT22;7652;53.584;9.998;2023-02-15T10:41:29;5.30;99.90
15103;DHT22;7652;53.584;9.998;2023-02-15T10:44:44;5.20;99.90
15103;DHT22;7652;53.584;9.998;2023-02-15T10:48:12;5.20;99.90
15103;DHT22;7652;53.584;9.998;2023-02-15T10:51:24;5.20;99.90
15103;DHT22;7652;53.584;9.998;2023-02-15T10:54:36;5.40;99.90
15103;DHT22;7652;53.584;9.998;2023-02-15T10:57:48;5.60;99.90
15103;DHT22;7652;53.584;9.998;2023-02-15T11:01:00;5.90;99.90
15103;DHT22;7652;53.584;9.998;2023-02-15T11:04:26;5.80;99.90
15103;DHT22;7652;53.584;9.998;2023-02-15T11:07:35;5.80;99.90
15103;DHT22;7652;53.584;9.998;2023-02-15T11:10:47;6.00;99.90
15103;DHT22;7652;53.584;9.998;2023-02-15T11:13:54;6.10;99.90
15103;DHT22;7652;53.584;9.998;2023-02-15T11:17:02;6.20;99.90
15103;DHT22;7652;53.584;9.998;2023-02-15T11:20:16;6.10;99.90
15103;DHT22;7652;53.584;9.998;2023-02-15T11:23:20;6.20;99.90
15103;DHT22;7652;53.584;9.998;2023-02-15T11:26:29;6.30;99.90
15103;DHT22;7652;53.584;9.998;2023-02-15T11:29:38;6.30;99.90
15103;DHT22;7652;53.584;9.998;2023-02-15T11:32:45;6.60;99.90
15103;DHT22;7652;53.584;9.998;2023-02-15T11:35:52;6.60;99.90
15103;DHT22;7652;53.584;9.998;2023-02-15T11:38:59;6.80;99.90
15103;DHT22;7652;53.584;9.998;2023-02-15T11:42:11;7.30;99.90
15103;DHT22;7652;53.584;9.998;2023-02-15T11:45:21;7.70;99.90
15103;DHT22;7652;53.584;9.998;2023-02-15T11:48:25;8.40;99.90
15103;DHT22;7652;53.584;9.998;2023-02-15T11:51:29;9.40;99.90
15103;DHT22;7652;53.584;9.998;2023-02-15T11:54:34;9.90;99.90
15103;DHT22;7652;53.584;9.998;2023-02-15T11:57:42;10.30;99.90
15103;DHT22;7652;53.584;9.998;2023-02-15T12:00:51;10.70;99.90
15103;DHT22;7652;53.584;9.998;2023-02-15T12:03:57;11.20;99.90
15103;DHT22;7652;53.584;9.998;2023-02-15T12:07:05;11.80;99.90
15103;DHT22;7652;53.584;9.998;2023-02-15T12:10:17;12.10;99.90
15103;DHT22;7652;53.584;9.998;2023-02-15T12:13:21;12.60;99.90
15103;DHT22;7652;53.584;9.998;2023-02-15T12:16:25;12.70;99.90
15103;DHT22;7652;53.584;9.998;2023-02-15T12:19:31;12.40;99.90
15103;DHT22;7652;53.584;9.998;2023-02-15T12:22:37;12.00;99.90
15103;DHT22;7652;53.584;9.998;2023-02-15T12:25:41;12.70;99.90
15103;DHT22;7652;53.584;9.998;2023-02-15T12:28:49;13.40;99.90
15103;DHT22;7652;53.584;9.998;2023-02-15T12:31:54;14.10;99.90
15103;DHT22;7652;53.584;9.998;2023-02-15T12:35:01;14.40;99.90
15103;DHT22;7652;53.584;9.998;2023-02-15T12:38:21;14.20;99.90
15103;DHT22;7652;53.584;9.998;2023-02-15T12:41:25;14.80;99.90
15103;DHT22;7652;53.584;9.998;2023-02-15T12:44:31;14.80;99.90
15103;DHT22;7652;53.584;9.998;2023-02-15T12:47:34;13.20;99.90
15103;DHT22;7652;53.584;9.998;2023-02-15T12:50:38;14.00;99.90
15103;DHT22;7652;53.584;9.998;2023-02-15T12:53:42;14.30;99.90
15103;DHT22;7652;53.584;9.998;2023-02-15T12:56:46;13.80;99.90
15103;DHT22;7652;53.584;9.998;2023-02-15T12:59:52;13.90;99.90
15103;DHT22;7652;53.584;9.998;2023-02-15T13:02:56;14.20;99.90
15103;DHT22;7652;53.584;9.998;2023-02-15T13:06:01;14.20;99.90
15103;DHT22;7652;53.584;9.998;2023-02-15T13:09:15;14.30;99.90
15103;DHT22;7652;53.584;9.998;2023-02-15T13:12:21;13.60;99.90
15103;DHT22;7652;53.584;9.998;2023-02-15T13:15:31;14.50;99.90
15103;DHT22;7652;53.584;9.998;2023-02-15T13:18:39;14.50;99.90
15103;DHT22;7652;53.584;9.998;2023-02-15T13:21:44;14.70;99.90
15103;DHT22;7652;53.584;9.998;2023-02-15T13:24:51;14.50;99.90
15103;DHT22;7652;53.584;9.998;2023-02-15T13:27:59;14.20;99.90
15103;DHT22;7652;53.584;9.998;2023-02-15T13:31:12;13.90;99.90
15103;DHT22;7652;53.584;9.998;2023-02-15T13:34:18;14.40;99.90
15103;DHT22;7652;53.584;9.998;2023-02-15T13:37:38;14.50;99.90
15103;DHT22;7652;53.584;9.998;2023-02-15T13:40:51;13.60;99.90
15103;DHT22;7652;53.584;9.998;2023-02-15T13:44:03;14.10;99.90
15103;DHT22;7652;53.584;9.998;2023-02-15T13:47:20;13.90;99.90
15103;DHT22;7652;53.584;9.998;2023-02-15T13:50:38;13.30;99.90
15103;DHT22;7652;53.584;9.998;2023-02-15T13:53:56;13.80;99.90
15103;DHT22;7652;53.584;9.998;2023-02-15T13:57:21;13.10;99.90
15103;DHT22;7652;53.584;9.998;2023-02-15T14:00:34;13.00;99.90
15103;DHT22;7652;53.584;9.998;2023-02-15T14:03:57;12.60;99.90
15103;DHT22;7652;53.584;9.998;2023-02-15T14:07:30;12.10;99.90
15103;DHT22;7652;53.584;9.998;2023-02-15T14:10:51;12.00;99.90
15103;DHT22;7652;53.584;9.998;2023-02-15T14:14:23;12.00;99.90
15103;DHT22;7652;53.584;9.998;2023-02-15T14:17:34;11.40;99.90
15103;DHT22;7652;53.584;9.998;2023-02-15T14:20:51;11.60;99.90
15103;DHT22;7652;53.584;9.998;2023-02-15T14:24:09;11.10;99.90
15103;DHT22;7652;53.584;9.998;2023-02-15T14:27:22;11.20;99.90
15103;DHT22;7652;53.584;9.998;2023-02-15T14:30:30;11.10;99.90
15103;DHT22;7652;53.584;9.998;2023-02-15T14:33:37;11.10;99.90
15103;DHT22;7652;53.584;9.998;2023-02-15T14:36:43;11.10;99.90
15103;DHT22;7652;53.584;9.998;2023-02-15T14:39:54;11.00;99.90
15103;DHT22;7652;53.584;9.998;2023-02-15T14:43:23;10.80;99.90
15103;DHT22;7652;53.584;9.998;2023-02-15T14:46:31;10.70;99.90
15103;DHT22;7652;53.584;9.998;2023-02-15T14:49:38;10.60;99.90
15103;DHT22;7652;53.584;9.998;2023-02-15T15:00:38;10.10;99.90
15103;DHT22;7652;53.584;9.998;2023-02-15T15:03:53;10.10;99.90
15103;DHT22;7652;53.584;9.998;2023-02-15T15:07:04;10.00;99.90
15103;DHT22;7652;53.584;9.998;2023-02-15T15:10:37;10.00;99.90
15103;DHT22;7652;53.584;9.998;2023-02-15T15:13:55;9.90;99.90
15103;DHT22;7652;53.584;9.998;2023-02-15T15:16:58;9.80;99.90
15103;DHT22;7652;53.584;9.998;2023-02-15T15:20:05;9.90;99.90
15103;DHT22;7652;53.584;9.998;2023-02-15T15:23:42;9.90;99.90
15103;DHT22;7652;53.584;9.998;2023-02-15T15:26:47;9.80;99.90
15103;DHT22;7652;53.584;9.998;2023-02-15T15:29:52;9.70;99.90
15103;DHT22;7652;53.584;9.998;2023-02-15T15:33:01;9.70;99.90
15103;DHT22;7652;53.584;9.998;2023-02-15T15:36:30;9.60;99.90
15103;DHT22;7652;53.584;9.998;2023-02-15T15:40:04;9.60;99.90
15103;DHT22;7652;53.584;9.998;2023-02-15T15:43:40;9.50;99.90
15103;DHT22;7652;53.584;9.998;2023-02-15T15:47:00;9.40;99.90
15103;DHT22;7652;53.584;9.998;2023-02-15T15:50:12;9.30;99.90
15103;DHT22;7652;53.584;9.998;2023-02-15T15:53:19;9.20;99.90
15103;DHT22;7652;53.584;9.998;2023-02-15T15:56:25;9.00;99.90
15103;DHT22;7652;53.584;9.998;2023-02-15T15:59:32;9.10;99.90
15103;DHT22;7652;53.584;9.998;2023-02-15T16:02:49;8.90;99.90
15103;DHT22;7652;53.584;9.998;2023-02-15T16:05:53;8.70;99.90
15103;DHT22;7652;53.584;9.998;2023-02-15T16:09:08;8.60;99.90
15103;DHT22;7652;53.584;9.998;2023-02-15T16:12:15;8.60;99.90
15103;DHT22;7652;53.584;9.998;2023-02-15T16:15:28;8.60;99.90
15103;DHT22;7652;53.584;9.998;2023-02-15T16:18:37;8.50;99.90
15103;DHT22;7652;53.584;9.998;2023-02-15T16:21:44;8.40;99.90
15103;DHT22;7652;53.584;9.998;2023-02-15T16:25:16;8.30;99.90
15103;DHT22;7652;53.584;9.998;2023-02-15T16:28:22;8.30;99.90
15103;DHT22;7652;53.584;9.998;2023-02-15T16:31:27;8.30;99.90
15103;DHT22;7652;53.584;9.998;2023-02-15T16:34:30;8.10;99.90
15103;DHT22;7652;53.584;9.998;2023-02-15T16:37:35;8.10;99.90
15103;DHT22;7652;53.584;9.998;2023-02-15T16:40:47;8.00;99.90
15103;DHT22;7652;53.584;9.998;2023-02-15T16:43:56;7.90;99.90
15103;DHT22;7652;53.584;9.998;2023-02-15T16:47:01;7.90;99.90
15103;DHT22;7652;53.584;9.998;2023-02-15T16:50:06;7.90;99.90
15103;DHT22;7652;53.584;9.998;2023-02-15T16:53:20;7.80;99.90
15103;DHT22;7652;53.584;9.998;2023-02-15T16:56:25;7.70;99.90
15103;DHT22;7652;53.584;9.998;2023-02-15T16:59:32;7.60;99.90
15103;DHT22;7652;53.584;9.998;2023-02-15T17:02:37;7.50;99.90
15103;DHT22;7652;53.584;9.998;2023-02-15T17:05:58;7.50;99.90
15103;DHT22;7652;53.584;9.998;2023-02-15T17:09:04;7.40;99.90
15103;DHT22;7652;53.584;9.998;2023-02-15T17:12:09;7.30;99.90
15103;DHT22;7652;53.584;9.998;2023-02-15T17:15:25;7.40;99.90
15103;DHT22;7652;53.584;9.998;2023-02-15T17:18:32;7.30;99.90
15103;DHT22;7652;53.584;9.998;2023-02-15T17:21:39;7.30;99.90
15103;DHT22;7652;53.584;9.998;2023-02-15T17:24:44;7.30;99.90
15103;DHT22;7652;53.584;9.998;2023-02-15T17:27:53;7.20;99.90
15103;DHT22;7652;53.584;9.998;2023-02-15T17:30:58;7.20;99.90
15103;DHT22;7652;53.584;9.998;2023-02-15T17:34:03;7.10;99.90
15103;DHT22;7652;53.584;9.998;2023-02-15T17:37:10;7.00;99.90
15103;DHT22;7652;53.584;9.998;2023-02-15T17:40:23;7.00;99.90
15103;DHT22;7652;53.584;9.998;2023-02-15T17:43:26;7.00;99.90
15103;DHT22;7652;53.584;9.998;2023-02-15T17:46:33;6.90;99.90
15103;DHT22;7652;53.584;9.998;2023-02-15T17:49:38;6.90;99.90
15103;DHT22;7652;53.584;9.998;2023-02-15T17:52:41;6.80;99.90
15103;DHT22;7652;53.584;9.998;2023-02-15T17:55:44;6.80;99.90
15103;DHT22;7652;53.584;9.998;2023-02-15T17:58:47;6.80;99.90
15103;DHT22;7652;53.584;9.998;2023-02-15T18:01:50;6.80;99.90
15103;DHT22;7652;53.584;9.998;2023-02-15T18:05:13;6.80;99.90
15103;DHT22;7652;53.584;9.998;2023-02-15T18:08:34;6.80;99.90
15103;DHT22;7652;53.584;9.998;2023-02-15T18:11:55;6.70;99.90
15103;DHT22;7652;53.584;9.998;2023-02-15T18:14:59;6.70;99.90
15103;DHT22;7652;53.584;9.998;2023-02-15T18:18:02;6.50;99.90
15103;DHT22;7652;53.584;9.998;2023-02-15T18:21:06;6.50;99.90
15103;DHT22;7652;53.584;9.998;2023-02-15T18:24:18;6.40;99.90
15103;DHT22;7652;53.584;9.998;2023-02-15T18:27:21;6.40;99.90
15103;DHT22;7652;53.584;9.998;2023-02-15T18:30:24;6.40;99.90
15103;DHT22;7652;53.584;9.998;2023-02-15T18:33:33;6.40;99.90
15103;DHT22;7652;53.584;9.998;2023-02-15T18:36:41;6.30;99.90
15103;DHT22;7652;53.584;9.998;2023-02-15T18:39:47;6.20;99.90
15103;DHT22;7652;53.584;9.998;2023-02-15T18:42:50;6.20;99.90
15103;DHT22;7652;53.584;9.998;2023-02-15T18:45:53;6.10;99.90
15103;DHT22;7652;53.584;9.998;2023-02-15T18:48:56;6.00;99.90
15103;DHT22;7652;53.584;9.998;2023-02-15T18:52:01;6.00;99.90
15103;DHT22;7652;53.584;9.998;2023-02-15T18:55:15;6.00;99.90
15103;DHT22;7652;53.584;9.998;2023-02-15T18:58:20;6.00;99.90
15103;DHT22;7652;53.584;9.998;2023-02-15T19:01:24;5.90;99.90
15103;DHT22;7652;53.584;9.998;2023-02-15T19:04:27;5.90;99.90
15103;DHT22;7652;53.584;9.998;2023-02-15T19:07:33;5.90;99.90
15103;DHT22;7652;53.584;9.998;2023-02-15T19:10:36;5.90;99.90
15103;DHT22;7652;53.584;9.998;2023-02-15T19:13:39;5.90;99.90
15103;DHT22;7652;53.584;9.998;2023-02-15T19:16:42;5.80;99.90
15103;DHT22;7652;53.584;9.998;2023-02-15T19:19:46;5.80;99.90
15103;DHT22;7652;53.584;9.998;2023-02-15T19:22:52;5.70;99.90
15103;DHT22;7652;53.584;9.998;2023-02-15T19:25:55;5.70;99.90
15103;DHT22;7652;53.584;9.998;2023-02-15T19:28:59;5.70;99.90
15103;DHT22;7652;53.584;9.998;2023-02-15T19:32:03;5.70;99.90
15103;DHT22;7652;53.584;9.998;2023-02-15T19:35:12;5.60;99.90
15103;DHT22;7652;53.584;9.998;2023-02-15T19:38:19;5.60;99.90
15103;DHT22;7652;53.584;9.998;2023-02-15T19:41:28;5.50;99.90
15103;DHT22;7652;53.584;9.998;2023-02-15T19:44:32;5.50;99.90
15103;DHT22;7652;53.584;9.998;2023-02-15T19:47:35;5.50;99.90
15103;DHT22;7652;53.584;9.998;2023-02-15T19:50:38;5.40;99.90
15103;DHT22;7652;53.584;9.998;2023-02-15T19:53:44;5.50;99.90
15103;DHT22;7652;53.584;9.998;2023-02-15T19:56:48;5.40;99.90
15103;DHT22;7652;53.584;9.998;2023-02-15T19:59:51;5.30;99.90
15103;DHT22;7652;53.584;9.998;2023-02-15T20:02:54;5.30;99.90
15103;DHT22;7652;53.584;9.998;2023-02-15T20:05:59;5.40;99.90
15103;DHT22;7652;53.584;9.998;2023-02-15T20:09:04;5.40;99.90
15103;DHT22;7652;53.584;9.998;2023-02-15T20:12:17;5.40;99.90
15103;DHT22;7652;53.584;9.998;2023-02-15T20:15:23;5.40;99.90
15103;DHT22;7652;53.584;9.998;2023-02-15T20:18:27;5.30;99.90
15103;DHT22;7652;53.584;9.998;2023-02-15T20:21:31;5.30;99.90
15103;DHT22;7652;53.584;9.998;2023-02-15T20:24:35;5.20;99.90
15103;DHT22;7652;53.584;9.998;2023-02-15T20:27:38;5.20;99.90
15103;DHT22;7652;53.584;9.998;2023-02-15T20:30:43;5.10;99.90
15103;DHT22;7652;53.584;9.998;2023-02-15T20:33:46;5.10;99.90
15103;DHT22;7652;53.584;9.998;2023-02-15T20:36:49;5.10;99.90
15103;DHT22;7652;53.584;9.998;2023-02-15T20:39:54;5.10;99.90